• Join FlightAware (Why Join?)
  • Login
  • US Flag 
01:18AM EDT


 

Airport Tracker/Info


-or-


 

Live Flight TrackerFlight Track Log ✈ EJA396 ✈ 04-May-2013 ✈ KSJC - KPSP

Flight Track Log - Related Links

Times and Time Zones

All times are in EDT time to prevent confusion due to time zone crossing. See the EJA396 flight status page for this flight to view local times or setup timezone preferences in your user account.

Time Position Orientation Groundspeed Altitude Reporting Facility
EDT Latitude Longitude Course Direction KTS MPH feet Rate Location/Type
10:18AM 37.3833 -121.9667 141° Southeast 195 224 2,200  Level Northern Cal TRACON
10:19AM 37.4333 -121.9833 345° North 215 247 4,800 1,440 Climbing Northern Cal TRACON
10:20AM 37.4167 -121.9167 107° East 229 264 5,100 1,860 Climbing Northern Cal TRACON
10:21AM 37.3667 -121.8667 142° Southeast 243 280 8,600 3,120 Climbing Northern Cal TRACON
10:22AM 37.3444 -121.8344 131° Southeast 251 289 9,900 3,060 Climbing Oakland Center
10:23AM 37.2758 -121.7536 137° Southeast 334 384 13,400 3,420 Climbing Oakland Center
10:24AM 36.9993 -121.3300 141° Southeast  Level Estimated
10:24AM 37.1989 -121.6692 139° Southeast 366 421 16,900  Level Oakland Center
10:25AM 37.1183 -121.5781 138° Southeast 387 445 20,300 3,120 Climbing Oakland Center
10:26AM 37.0325 -121.4864 140° Southeast 408 470 23,300 2,580 Climbing Oakland Center
10:27AM 36.9469 -121.3850 137° Southeast 421 484 25,600 2,040 Climbing Oakland Center
10:28AM 36.8544 -121.2833 139° Southeast 441 507 27,500 1,620 Climbing Oakland Center
10:29AM 36.7419 -121.1703 141° Southeast 447 514 29,000 900 Climbing Oakland Center
10:30AM 36.6450 -121.0572 137° Southeast 469 540 29,400 1,620 Climbing Oakland Center
10:31AM 36.5472 -120.9514 139° Southeast 465 535 32,300 2,220 Climbing Oakland Center
10:32AM 36.4522 -120.8464 138° Southeast 456 525 34,000 1,260 Climbing Oakland Center
10:33AM 36.3553 -120.7361 137° Southeast 469 540 34,900 480 Climbing Oakland Center
10:34AM 36.2547 -120.6267 139° Southeast 479 551 35,000  Climbing Oakland Center
10:35AM 36.1717 -120.4897 127° Southeast 489 563 35,000  Level Oakland Center
10:36AM 36.0856 -120.3464 127° Southeast 509 586 35,000  Level Oakland Center
10:37AM 36.0022 -120.2122 127° Southeast 494 568 35,000  Level Oakland Center
10:38AM 35.9181 -120.0789 128° Southeast 486 559 35,000  Level Oakland Center
10:39AM 35.8344 -119.9431 127° Southeast 493 567 35,000  Level Oakland Center
10:40AM 35.7503 -119.8081 128° Southeast 494 568 35,000  Level Oakland Center
10:41AM 35.6653 -119.6731 128° Southeast 495 570 35,000  Level Oakland Center
10:42AM 35.5828 -119.5419 128° Southeast 485 558 35,000  Level Oakland Center
10:43AM 35.4994 -119.4108 128° Southeast 486 559 35,000  Level Oakland Center
10:43AM 35.4678 -119.3581 126° Southeast 481 554 35,000  Level Los Angeles Center
10:44AM 35.3689 -119.2017 128° Southeast 481 554 35,000  Level Los Angeles Center
10:45AM 35.2847 -119.0667 127° Southeast 492 566 35,000  Level Los Angeles Center
10:46AM 35.1989 -118.9358 129° Southeast 494 568 35,000 -120 Level Los Angeles Center
10:47AM 35.1136 -118.8067 129° Southeast 489 563 34,800 -1,320 Descending Los Angeles Center
10:49AM 35.0328 -118.6789 128° Southeast 480 552 32,400 -2,460 Descending Los Angeles Center
10:50AM 34.9483 -118.5500 129° Southeast 483 556 29,800 -2,400 Descending Los Angeles Center
10:51AM 34.8683 -118.4261 128° Southeast 478 550 27,600 -2,400 Descending Los Angeles Center
10:52AM 34.7894 -118.3067 129° Southeast 461 531 24,900 -2,880 Descending Los Angeles Center
10:53AM 34.6975 -118.1653 128° Southeast 449 517 21,700 -1,920 Descending Los Angeles Center
10:54AM 34.6253 -118.0514 128° Southeast 433 498 21,000 -360 Descending Los Angeles Center
10:55AM 34.5669 -117.9250 119° Southeast 433 498 21,000  Level Los Angeles Center
10:56AM 34.5089 -117.7986 119° Southeast 433 498 21,000 -120 Level Los Angeles Center
10:57AM 34.4506 -117.6722 119° Southeast 433 498 20,800 -1,020 Descending Los Angeles Center
10:58AM 34.3953 -117.5511 119° Southeast 418 481 19,000 -1,800 Descending Los Angeles Center
10:59AM 34.3358 -117.4222 119° Southeast 399 459 17,200 -1,080 Descending Los Angeles Center
11:00AM 34.2833 -117.3053 118° Southeast 396 456 16,800 -840 Descending Los Angeles Center
11:01AM 34.2300 -117.1922 120° Southeast 387 445 15,600 -1,380 Descending Los Angeles Center
11:02AM 34.1758 -117.0756 119° Southeast 368 423 14,000 -840 Descending Los Angeles Center
11:03AM 34.1289 -116.9794 121° Southeast 338 389 14,000  Level Los Angeles Center
11:04AM 34.0833 -116.8833 120° Southeast 322 371 14,100  Climbing Southern California TRACON
11:05AM 34.0500 -116.8000 116° Southeast 316 364 14,000  Descending Southern California TRACON
11:05AM 34.0381 -116.7850 134° Southeast 315 362 14,100 -1,260 Climbing Los Angeles Center
11:06AM 33.9958 -116.6922 119° Southeast 314 361 12,400 -2,100 Descending Los Angeles Center
11:07AM 33.9583 -116.6136 120° Southeast 278 320 9,900 -2,520 Descending Los Angeles Center
11:08AM 33.9292 -116.5508 119° Southeast 231 266 7,300 -2,460 Descending Los Angeles Center
11:10AM 33.8667 -116.4667 132° Southeast 193 222 3,400 -2,040 Descending Southern California TRACON
11:11AM 33.8333 -116.4333 140° Southeast 157 181 2,000 -1,020 Descending Southern California TRACON
11:12AM 33.8000 -116.4667 220° Southwest 133 153 1,400 -660 Descending Southern California TRACON
11:13AM 33.8167 -116.5000 301° West 123 142 700 -720 Descending Southern California TRACON
11:15AM 33.8297 -116.5067 239° Southwest  Level Estimated